Sir Albert — 9HA2536 — position and weather

sailwx.info

Track history (hours):
 
Tides and Currents Weather Stations Pressure Air Temp Water Temp Dewpoint Dewpoint Depression Visibility Wind Speed Wind Dir Waves Ship Positions

Sir Albert

Last reported at 2015-Jul-07 12:31 UTC. Time now 2015-Jul-08 06:34 UTC.
Position N 39°02' E 008°14'.

Length 132 m; draft 7.6 m.

Type: Cargo ship. MMSI: 248832000.

Date/timePositionNaut miles runAvg speedWind from/ knotsBaromVisibWave heightAir tempDewpointWater temp
2015-Jul-07 12:31N 39°02' E 008°14'  
2015-Jul-01 13:26N 39°13' E 008°19'11 8.8
2015-Jul-01 12:11N 39°10' E 008°05'711.4
2015-Jul-01 11:33N 39°08' E 007°56'1111.3
2015-Jul-01 10:33N 39°04' E 007°43'1111.1
2015-Jul-01 09:32N 39°00' E 007°29'1110.8
2015-Jul-01 08:32N 38°57' E 007°16'1110.9
2015-Jul-01 07:33N 38°53' E 007°03'1111.1
2015-Jul-01 06:32N 38°49' E 006°49'1111.2
2015-Jul-01 05:33N 38°46' E 006°36'1111.2
2015-Jul-01 04:33N 38°42' E 006°22'1411.3
2015-Jul-01 03:18N 38°37' E 006°05'811.3
2015-Jul-01 02:33N 38°35' E 005°55'1111.3
2015-Jul-01 01:33N 38°31' E 005°41'1311.3
2015-Jul-01 00:22N 38°26' E 005°25'911.3
2015-Jun-30 23:33N 38°23' E 005°14'1111.2
2015-Jun-30 22:32N 38°19' E 005°00'1110.9
2015-Jun-30 21:33N 38°16' E 004°47'1110.8
2015-Jun-30 20:33N 38°13' E 004°35'1110.7
2015-Jun-30 19:29N 38°09' E 004°21'1010.8
2015-Jun-30 18:31N 38°05' E 004°08'1111.0
2015-Jun-30 17:33N 38°02' E 003°56'1111.0
2015-Jun-30 16:33N 37°58' E 003°43'1110.8
2015-Jun-30 15:33N 37°55' E 003°29'1110.8
2015-Jun-30 14:33N 37°51' E 003°16'1110.7
2015-Jun-30 13:33N 37°47' E 003°04'1111.0
2015-Jun-30 12:33N 37°43' E 002°51'1111.0
2015-Jun-30 11:33N 37°40' E 002°37'1111.0
2015-Jun-30 10:33N 37°37' E 002°24'1111.0
2015-Jun-30 09:33N 37°33' E 002°12'1111.0
2015-Jun-30 08:33N 37°29' E 001°58'1110.8
2015-Jun-30 07:33N 37°26' E 001°45'1110.8
2015-Jun-30 06:33N 37°22' E 001°33'1110.7
2015-Jun-30 05:33N 37°18' E 001°20'1110.6
2015-Jun-30 04:33N 37°15' E 001°07'1110.9
2015-Jun-30 03:33N 37°12' E 000°54'1111.0
2015-Jun-30 02:33N 37°08' E 000°41'1110.9
2015-Jun-30 01:33N 37°04' E 000°28'1110.7
2015-Jun-30 00:33N 37°01' E 000°16'1110.9
2015-Jun-29 23:33N 36°57' E 000°03'1210.9
2015-Jun-29 22:26N 36°53' W 000°12'910.2
2015-Jun-29 21:33N 36°50' W 000°22'1110.6
2015-Jun-29 20:33N 36°47' W 000°35'1110.6
2015-Jun-29 19:33N 36°43' W 000°47'1110.6
2015-Jun-29 18:33N 36°40' W 000°60'1110.3
2015-Jun-29 17:28N 36°36' W 001°13'1010.4
2015-Jun-29 16:32N 36°33' W 001°24'1210.2
2015-Jun-29 15:23N 36°29' W 001°38'9 9.9
2015-Jun-29 14:31N 36°26' W 001°48'1010.1
2015-Jun-29 13:33N 36°23' W 001°59'5810.8
2015-Jun-29 08:08N 36°13' W 003°11'711.6
2015-Jun-29 07:33N 36°12' W 003°19'1212.0
2015-Jun-29 06:32N 36°10' W 003°34'7712.5
2015-Jun-29 00:24N 36°00' W 005°08'1113.6
2015-Jun-28 23:33N 35°58' W 005°22'2410.9
2015-Jun-28 21:22N 35°54' W 005°51'810.5
2015-Jun-28 20:33N 35°54' W 006°02'2110.4
2015-Jun-28 18:33N 35°54' W 006°27'1111.0
2015-Jun-28 17:33N 35°55' W 006°41'1111.1
2015-Jun-28 16:33N 35°55' W 006°55'1111.4
2015-Jun-28 15:33N 35°56' W 007°09'1111.3
2015-Jun-28 14:33N 35°56' W 007°23'1111.5
2015-Jun-28 13:33N 35°56' W 007°37'3410.9
2015-Jun-28 10:27N 35°57' W 008°19'910.5
2015-Jun-28 09:33N 35°57' W 008°30'1111.0
2015-Jun-28 08:33N 35°57' W 008°44'3029.4
2015-Jun-28 07:33N 35°58' W 009°20'4 3.9
2015-Jun-28 06:33N 35°58' W 009°25'4 3.9
2015-Jun-28 05:33N 35°58' W 009°30'7 6.9
2015-Jun-28 04:33N 35°59' W 009°38'1110.5
2015-Jun-28 03:33N 35°59' W 009°52'1010.4
2015-Jun-28 02:33N 35°59' W 010°04'1010.5
2015-Jun-28 01:33N 35°59' W 010°17'1110.7
2015-Jun-28 00:33N 35°59' W 010°30'1110.6
2015-Jun-27 23:33N 35°60' W 010°44'1110.8
2015-Jun-27 22:33N 36°00' W 010°57'1110.6
2015-Jun-27 21:33N 36°00' W 011°10'1110.5
2015-Jun-27 20:33N 36°01' W 011°23'1010.3
2015-Jun-27 19:33N 36°01' W 011°36'1110.7
2015-Jun-27 18:33N 36°01' W 011°49'1010.3
2015-Jun-27 17:33N 36°01' W 012°02'1010.4
2015-Jun-27 16:33N 36°01' W 012°15'1110.6
2015-Jun-27 15:33N 36°02' W 012°28'1110.6
2015-Jun-27 14:32N 36°02' W 012°41'1110.7
2015-Jun-27 13:33N 36°03' W 012°54'1110.7
2015-Jun-27 12:33N 36°03' W 013°07'  
Track history (hours):
 
Tides and Currents Weather Stations Pressure Air Temp Water Temp Dewpoint Dewpoint Depression Visibility Wind Speed Wind Dir Waves Ship Positions

Sir Albert

Last reported at 2015-Jul-07 12:31 UTC. Time now 2015-Jul-08 06:34 UTC.
Position N 39°02' E 008°14'.

Length 132 m; draft 7.6 m.

Type: Cargo ship. MMSI: 248832000.

Date/timePositionNaut miles runAvg speedWind from/ knotsBaromVisibWave heightAir tempDewpointWater temp
2015-Jul-07 12:31N 39°02' E 008°14'  
2015-Jul-01 13:26N 39°13' E 008°19'11 8.8
2015-Jul-01 12:11N 39°10' E 008°05'711.4
2015-Jul-01 11:33N 39°08' E 007°56'1111.3
2015-Jul-01 10:33N 39°04' E 007°43'1111.1
2015-Jul-01 09:32N 39°00' E 007°29'1110.8
2015-Jul-01 08:32N 38°57' E 007°16'1110.9
2015-Jul-01 07:33N 38°53' E 007°03'1111.1
2015-Jul-01 06:32N 38°49' E 006°49'1111.2
2015-Jul-01 05:33N 38°46' E 006°36'1111.2
2015-Jul-01 04:33N 38°42' E 006°22'1411.3
2015-Jul-01 03:18N 38°37' E 006°05'811.3
2015-Jul-01 02:33N 38°35' E 005°55'1111.3
2015-Jul-01 01:33N 38°31' E 005°41'1311.3
2015-Jul-01 00:22N 38°26' E 005°25'911.3
2015-Jun-30 23:33N 38°23' E 005°14'1111.2
2015-Jun-30 22:32N 38°19' E 005°00'1110.9
2015-Jun-30 21:33N 38°16' E 004°47'1110.8
2015-Jun-30 20:33N 38°13' E 004°35'1110.7
2015-Jun-30 19:29N 38°09' E 004°21'1010.8
2015-Jun-30 18:31N 38°05' E 004°08'1111.0
2015-Jun-30 17:33N 38°02' E 003°56'1111.0
2015-Jun-30 16:33N 37°58' E 003°43'1110.8
2015-Jun-30 15:33N 37°55' E 003°29'1110.8
2015-Jun-30 14:33N 37°51' E 003°16'1110.7
2015-Jun-30 13:33N 37°47' E 003°04'1111.0
2015-Jun-30 12:33N 37°43' E 002°51'1111.0
2015-Jun-30 11:33N 37°40' E 002°37'1111.0
2015-Jun-30 10:33N 37°37' E 002°24'1111.0
2015-Jun-30 09:33N 37°33' E 002°12'1111.0
2015-Jun-30 08:33N 37°29' E 001°58'1110.8
2015-Jun-30 07:33N 37°26' E 001°45'1110.8
2015-Jun-30 06:33N 37°22' E 001°33'1110.7
2015-Jun-30 05:33N 37°18' E 001°20'1110.6
2015-Jun-30 04:33N 37°15' E 001°07'1110.9
2015-Jun-30 03:33N 37°12' E 000°54'1111.0
2015-Jun-30 02:33N 37°08' E 000°41'1110.9
2015-Jun-30 01:33N 37°04' E 000°28'1110.7
2015-Jun-30 00:33N 37°01' E 000°16'1110.9
2015-Jun-29 23:33N 36°57' E 000°03'1210.9
2015-Jun-29 22:26N 36°53' W 000°12'910.2
2015-Jun-29 21:33N 36°50' W 000°22'1110.6
2015-Jun-29 20:33N 36°47' W 000°35'1110.6
2015-Jun-29 19:33N 36°43' W 000°47'1110.6
2015-Jun-29 18:33N 36°40' W 000°60'1110.3
2015-Jun-29 17:28N 36°36' W 001°13'1010.4
2015-Jun-29 16:32N 36°33' W 001°24'1210.2
2015-Jun-29 15:23N 36°29' W 001°38'9 9.9
2015-Jun-29 14:31N 36°26' W 001°48'1010.1
2015-Jun-29 13:33N 36°23' W 001°59'5810.8
2015-Jun-29 08:08N 36°13' W 003°11'711.6
2015-Jun-29 07:33N 36°12' W 003°19'1212.0
2015-Jun-29 06:32N 36°10' W 003°34'7712.5
2015-Jun-29 00:24N 36°00' W 005°08'1113.6
2015-Jun-28 23:33N 35°58' W 005°22'2410.9
2015-Jun-28 21:22N 35°54' W 005°51'810.5
2015-Jun-28 20:33N 35°54' W 006°02'2110.4
2015-Jun-28 18:33N 35°54' W 006°27'1111.0
2015-Jun-28 17:33N 35°55' W 006°41'1111.1
2015-Jun-28 16:33N 35°55' W 006°55'1111.4
2015-Jun-28 15:33N 35°56' W 007°09'1111.3
2015-Jun-28 14:33N 35°56' W 007°23'1111.5
2015-Jun-28 13:33N 35°56' W 007°37'3410.9
2015-Jun-28 10:27N 35°57' W 008°19'910.5
2015-Jun-28 09:33N 35°57' W 008°30'1111.0
2015-Jun-28 08:33N 35°57' W 008°44'3029.4
2015-Jun-28 07:33N 35°58' W 009°20'4 3.9
2015-Jun-28 06:33N 35°58' W 009°25'4 3.9
2015-Jun-28 05:33N 35°58' W 009°30'7 6.9
2015-Jun-28 04:33N 35°59' W 009°38'1110.5
2015-Jun-28 03:33N 35°59' W 009°52'1010.4
2015-Jun-28 02:33N 35°59' W 010°04'1010.5
2015-Jun-28 01:33N 35°59' W 010°17'1110.7
2015-Jun-28 00:33N 35°59' W 010°30'1110.6
2015-Jun-27 23:33N 35°60' W 010°44'1110.8
2015-Jun-27 22:33N 36°00' W 010°57'1110.6
2015-Jun-27 21:33N 36°00' W 011°10'1110.5
2015-Jun-27 20:33N 36°01' W 011°23'1010.3
2015-Jun-27 19:33N 36°01' W 011°36'1110.7
2015-Jun-27 18:33N 36°01' W 011°49'1010.3
2015-Jun-27 17:33N 36°01' W 012°02'1010.4
2015-Jun-27 16:33N 36°01' W 012°15'1110.6
2015-Jun-27 15:33N 36°02' W 012°28'1110.6
2015-Jun-27 14:32N 36°02' W 012°41'1110.7
2015-Jun-27 13:33N 36°03' W 012°54'1110.7
2015-Jun-27 12:33N 36°03' W 013°07'  

Dump ship's entire track history